• Join FlightAware (Why Join?)
  • Login
  • US Flag 
Rudolph Flight #1: Arrived! 
03:45PM EST


 

Airport Tracker/Info


-or-


 

Live Flight TrackerFlight Track Log ✈ FLG3731 ✈ 23-Jun-2013 ✈ KALB - KDTW

Flight Track Log - Related Links

Times and Time Zones

All times are in EDT time to prevent confusion due to time zone crossing. See the FLG3731 flight status page for this flight to view local times or setup timezone preferences in your user account.

Time Position Orientation Groundspeed Altitude Reporting Facility
EDT Latitude Longitude Course Direction KTS MPH feet Rate Location/Type
12:43PM 42.6919 -73.8383 211° Southwest 203 234 3,200  Level Boston Center
12:44PM 42.7244 -73.9069 303° West 244 281 5,200 2,040 Climbing Boston Center
12:46PM 42.8278 -74.2941 281° West  Level FlightAware Approximate
12:46PM 42.8008 -73.9625 332° Northwest 279 321 7,800  Level Boston Center
12:47PM 42.8479 -74.4203 283° West  Level FlightAware Approximate
12:47PM 42.8647 -74.0094 332° Northwest 269 310 9,800  Level Boston Center
12:48PM 42.8722 -74.5444 304° West  Level FlightAware Approximate
12:48PM 42.9453 -74.0711 331° Northwest 284 327 10,500  Level Boston Center
12:49PM 43.0172 -74.1297 329° Northwest 324 373 12,300 1,560 Climbing Boston Center
12:50PM 43.0950 -74.2228 319° Northwest 332 382 14,000 1,560 Climbing Boston Center
12:51PM 43.1008 -74.3739 273° West 328 377 15,800 1,380 Climbing Boston Center
12:52PM 43.1069 -74.5047 274° West 341 392 16,800 960 Climbing Boston Center
12:53PM 43.1128 -74.6414 273° West 357 411 17,800 900 Climbing Boston Center
12:54PM 43.1183 -74.7811 273° West 368 423 18,700 900 Climbing Boston Center
12:55PM 43.1231 -74.9464 272° West 368 423 19,900 960 Climbing Boston Center
12:56PM 43.1283 -75.0889 273° West 368 423 20,900 960 Climbing Boston Center
12:57PM 43.1311 -75.2283 272° West 368 423 21,900 900 Climbing Boston Center
12:58PM 43.1364 -75.3539 273° West 368 423 22,700 900 Climbing Boston Center
12:59PM 43.1408 -75.4992 272° West 368 423 23,700 1,020 Climbing Boston Center
01:00PM 43.1456 -75.6333 273° West 368 423 24,800 1,020 Climbing Boston Center
01:01PM 43.1500 -75.7731 273° West 368 423 25,800 960 Climbing Boston Center
01:02PM 43.1542 -75.9097 272° West 368 423 26,800 780 Climbing Boston Center
01:03PM 43.1561 -76.0467 271° West 368 423 27,400 660 Climbing Boston Center
01:05PM 43.1519 -76.2969 269° West 367 422 28,600 660 Climbing Cleveland Center
01:06PM 43.1406 -76.4372 264° West 372 428 29,200 540 Climbing Cleveland Center
01:07PM 43.1286 -76.5775 263° West 372 428 29,700 300 Climbing Cleveland Center
01:08PM 43.1203 -76.6947 264° West 372 428 29,900 120 Climbing Cleveland Center
01:09PM 43.1044 -76.8522 262° West 379 436 30,000  Climbing Cleveland Center
01:10PM 43.0906 -77.0036 263° West 390 449 30,000  Level Cleveland Center
01:11PM 43.0764 -77.1581 263° West 403 464 30,000  Level Cleveland Center
01:12PM 43.0622 -77.3153 263° West 416 479 30,000  Level Cleveland Center
01:13PM 43.0442 -77.4922 262° West 429 494 30,000  Level Cleveland Center
01:14PM 43.0297 -77.6522 263° West 429 494 30,000  Level Cleveland Center
01:15PM 43.0169 -77.8175 264° West 429 494 30,000  Level Cleveland Center
01:16PM 42.9978 -77.9772 261° West 429 494 30,000  Level Cleveland Center
01:17PM 42.9828 -78.1453 263° West 434 499 30,000  Level Cleveland Center
01:18PM 42.9653 -78.3106 262° West 439 505 30,000  Level Cleveland Center
01:19PM 42.9494 -78.4700 262° West 439 505 30,000  Level Cleveland Center
01:20PM 42.9317 -78.6381 262° West 444 511 30,000  Level Cleveland Center
01:21PM 42.9092 -78.8003 259° West 444 511 30,000  Level Cleveland Center
01:22PM 42.8844 -78.9653 258° West 449 517 30,000 -600 Level Cleveland Center
01:23PM 42.8617 -79.1331 260° West 449 517 28,900 -840 Descending Cleveland Center
01:24PM 42.8367 -79.3064 259° West 461 531 28,400 -480 Descending Cleveland Center
01:25PM 42.8114 -79.4794 259° West 471 542 28,000 -240 Descending Cleveland Center
01:26PM 42.7836 -79.6497 258° West 471 542 28,000  Level Cleveland Center
01:27PM 42.7597 -79.8083 258° West 460 529 28,000  Level Cleveland Center
01:28PM 42.7461 -79.9669 263° West 439 505 28,000  Level Cleveland Center
01:29PM 42.7386 -80.1253 266° West 434 499 28,000  Level Cleveland Center
01:30PM 42.7328 -80.2808 267° West 420 483 28,000  Level Cleveland Center
01:31PM 42.7269 -80.4419 267° West 425 489 28,000  Level Cleveland Center
01:32PM 42.7208 -80.5831 267° West 420 483 28,000 -180 Level Cleveland Center
01:33PM 42.7122 -80.7386 266° West 420 483 27,700 -480 Descending Cleveland Center
01:34PM 42.7058 -80.8969 267° West 426 490 27,100 -540 Descending Cleveland Center
01:35PM 42.6886 -81.0550 262° West 426 490 26,700 -660 Descending Cleveland Center
01:36PM 42.6689 -81.2100 260° West 421 484 25,800 -960 Descending Cleveland Center
01:37PM 42.6514 -81.3681 261° West 431 496 24,800 -900 Descending Cleveland Center
01:38PM 42.6336 -81.5258 261° West 431 496 24,000 -420 Descending Cleveland Center
01:39PM 42.6133 -81.6833 260° West 426 490 24,000 -120 Level Cleveland Center
01:40PM 42.5950 -81.8325 261° West 426 490 23,800 -840 Descending Cleveland Center
01:41PM 42.5744 -81.9900 260° West 426 490 22,400 -1,740 Descending Cleveland Center
01:42PM 42.5581 -82.1419 262° West 426 490 20,400 -2,640 Descending Cleveland Center
01:43PM 42.5392 -82.2853 260° West 412 474 17,200 -3,600 Descending Cleveland Center
01:43PM 42.5297 -82.3750 262° West 387 445 15,000 -3,300 Descending Cleveland Center
01:44PM 42.5206 -82.4256 256° West 400 460 13,900 -2,100 Descending Cleveland Center
01:45PM 42.5017 -82.5575 259° West 380 437 11,900 -1,500 Descending Cleveland Center
01:46PM 42.4625 -82.6519 241° Southwest 318 366 11,000 -1,380 Descending Cleveland Center
01:47PM 42.4069 -82.7289 226° Southwest 303 349 9,200 -1,440 Descending Cleveland Center
01:48PM 42.3739 -82.8175 243° Southwest 288 331 8,200 -960 Descending Cleveland Center
01:49PM 42.3781 -82.9161 273° West 262 302 7,300 -600 Descending Cleveland Center
01:50PM 42.4269 -82.9828 315° West 231 266 7,000 -180 Descending Cleveland Center
01:51PM 42.4694 -83.0378 316° Northwest 225 259 7,000  Level Cleveland Center
01:51PM 42.4894 -83.0808 302° West 196 226 7,000 -660 Level Cleveland Center
01:52PM 42.4756 -83.1450 254° West 179 206 6,000 -960 Descending Cleveland Center
01:53PM 42.4331 -83.1769 209° Southwest 162 186 5,100 -780 Descending Cleveland Center
01:54PM 42.3883 -83.2117 210° Southwest 165 190 4,400 -780 Descending Cleveland Center
01:55PM 42.3461 -83.2408 207° Southwest 174 200 3,500 -900 Descending Cleveland Center